Pagrindinis puslapis
METAR-TAF:

METAR-TAF

Oro uostai :

Nadis, Fidžis

platuma: 17-45S, ilguma: 177-27E, Aukštis: 13 m

Dabartinis oras

Ataskaita buvo paskelbta 22 minutes, ne 05:00 UTC
Vėjas 8 kt iš Šiaurės/Šiaurės Rytų
Temperatūra 28°C
Drėgmė 79%
Slėgis 1013 hPa
Matomumas 10 km arba daugiau
Mažai debesys ne aukštis 2200 ft, Liūtiniai kamuoliniai debesys.
Išsisklaidę debesys ne aukštis 2700 ft, aukštai iškilę kamuoliniai debesys.

METAR: NFFN 290500Z 02008KT 9999 FEW022CB SCT027TCU 28/24 Q1013 NOSIG

Laikas: 17:22 (05:22 UTC)

Prognozė

Ataskaita buvo paskelbta 6 valandos ir 11 minutes, ne 23:11 UTC
Prognozė galioja nuo 29 metu 00 UTC su 29 metu 24 UTC
Vėjas 10 kt iš Vakarų/Šiaurės Vakarų
Matomumas 10 km arba daugiau
Mažai debesys ne aukštis 2800 ft
Tapsmas
nuo 29 metu 04 UTC su 29 metu 06 UTC
Vėjas 5 kt iš Pietryčių
Tapsmas
nuo 29 metu 22 UTC su 29 metu 24 UTC
Vėjas 10 kt iš Vakarų/Šiaurės Vakarų

TAF: NFFN 282311Z 2900/2924 29010KT 9999 FEW028 BECMG 2904/2906 13005KT BECMG 2922/2924 30010KT

Orai ataskaitas ir orų prognozės (METAR, TAF).

turimą stotys yra geltonos ir raudonos taškus žemėlapyje.

Perkelti pele per norėdami pamatyti stoties vardą.

Tada spustelėkite, norėdami matyti oro stebėjimo ir prognozės.

Norėdami pakeisti žemėlapį: spustelėkite ant žalios mygtukų su juodo kryžiaus žemyn,; žalią mygtuką su brūkšneliu, jei norite nutolinti; arba žalių rodyklių gretimoms žemėlapius.


METAR-TAF: